Time;durP1;ratioP1;P1;durP2;ratioP2;P2;SDS_P1;SDS_P2;PMS_P1;PMS_P2;Temp;Humidity;BMP_temperature;BMP_pressure;BME280_temperature;BME280_humidity;BME280_pressure;Samples;Min_cycle;Max_cycle;Signal;HPM_P1;HPM_P2
2022/11/10 00:02:08;;;;;;;102.17;74.10;;;;;;;;;;5033373;28;20533;-36
2022/11/10 00:04:34;;;;;;;91.67;70.90;;;;;;;;;;5032669;28;20865;-35
2022/11/10 00:07:00;;;;;;;108.53;79.40;;;;;;;;;;5031447;28;20230;-36
2022/11/10 00:09:26;;;;;;;105.50;76.37;;;;;;;;;;5031802;28;20187;-36
2022/11/10 00:11:53;;;;;;;121.50;85.40;;;;;;;;;;5032825;28;20214;-35
2022/11/10 00:17:03;;;;;;;121.97;86.83;;;;;;;;;;5034129;28;20334;-35
2022/11/10 00:19:30;;;;;;;108.23;80.47;;;;;;;;;;5004423;28;20287;-35
2022/11/10 00:21:56;;;;;;;131.70;93.90;;;;;;;;;;5031311;28;20334;-36
2022/11/10 00:24:22;;;;;;;107.67;80.10;;;;;;;;;;5031696;28;20179;-34
2022/11/10 00:26:49;;;;;;;126.03;88.33;;;;;;;;;;5032232;28;20314;-35
2022/11/10 00:29:15;;;;;;;131.80;93.83;;;;;;;;;;5030365;28;20658;-35
2022/11/10 00:31:41;;;;;;;115.33;84.57;;;;;;;;;;5030379;28;20292;-35
2022/11/10 00:34:10;;;;;;;124.73;92.47;;;;;;;;;;5034143;28;20194;-35
2022/11/10 00:36:36;;;;;;;136.77;95.37;;;;;;;;;;5031283;28;20282;-34
2022/11/10 00:39:03;;;;;;;128.13;92.47;;;;;;;;;;5030316;28;20682;-35
2022/11/10 00:41:29;;;;;;;121.60;86.47;;;;;;;;;;5030848;28;20307;-35
2022/11/10 00:43:55;;;;;;;123.90;88.70;;;;;;;;;;5032600;28;20757;-35
2022/11/10 00:46:21;;;;;;;126.00;91.57;;;;;;;;;;5034341;28;20187;-35
2022/11/10 00:48:47;;;;;;;123.07;88.13;;;;;;;;;;5032041;28;21073;-35
2022/11/10 00:51:27;;;;;;;103.90;77.80;;;;;;;;;;5027137;28;20345;-34
2022/11/10 00:53:53;;;;;;;97.77;74.03;;;;;;;;;;5033403;28;20549;-35
2022/11/10 00:56:20;;;;;;;96.67;73.47;;;;;;;;;;5033752;28;20419;-35
2022/11/10 00:58:46;;;;;;;113.10;82.50;;;;;;;;;;5030710;28;20197;-35
2022/11/10 01:01:13;;;;;;;102.33;76.23;;;;;;;;;;5032160;28;20302;-34
2022/11/10 01:03:39;;;;;;;120.80;86.40;;;;;;;;;;5034303;28;20183;-34
2022/11/10 01:06:06;;;;;;;115.80;83.37;;;;;;;;;;5031361;28;20317;-34
2022/11/10 01:08:33;;;;;;;105.60;79.00;;;;;;;;;;5029209;28;21454;-34
2022/11/10 01:11:06;;;;;;;115.07;83.10;;;;;;;;;;5031983;28;20524;-34
2022/11/10 01:13:32;;;;;;;121.03;86.50;;;;;;;;;;5033718;28;20179;-35
2022/11/10 01:16:09;;;;;;;116.63;85.57;;;;;;;;;;5031484;28;20785;-34
2022/11/10 01:18:36;;;;;;;107.90;81.43;;;;;;;;;;5028964;28;20182;-34
2022/11/10 01:21:02;;;;;;;128.27;88.23;;;;;;;;;;5032118;28;20191;-34
2022/11/10 01:23:28;;;;;;;127.33;89.77;;;;;;;;;;5016833;28;20555;-36
2022/11/10 01:26:01;;;;;;;130.93;93.87;;;;;;;;;;5032790;28;20826;-35
2022/11/10 01:28:27;;;;;;;127.80;91.93;;;;;;;;;;5028982;28;20505;-35
2022/11/10 01:30:57;;;;;;;133.47;91.80;;;;;;;;;;5032957;28;20383;-35
2022/11/10 01:33:23;;;;;;;96.13;74.73;;;;;;;;;;5032998;28;20188;-34
2022/11/10 01:35:49;;;;;;;100.90;76.03;;;;;;;;;;5013857;28;20654;-35
2022/11/10 01:38:15;;;;;;;93.90;71.70;;;;;;;;;;5028597;28;20214;-35
2022/11/10 01:40:42;;;;;;;100.73;77.47;;;;;;;;;;5033124;28;20175;-35
2022/11/10 01:43:10;;;;;;;105.90;79.23;;;;;;;;;;5033732;28;20787;-35
2022/11/10 01:45:48;;;;;;;133.83;93.80;;;;;;;;;;5032659;28;20184;-34
2022/11/10 01:48:19;;;;;;;105.30;77.33;;;;;;;;;;5028082;28;20674;-34
2022/11/10 01:50:46;;;;;;;105.40;78.37;;;;;;;;;;5031831;28;20282;-35
2022/11/10 01:53:16;;;;;;;103.60;76.70;;;;;;;;;;5033029;28;20187;-34
2022/11/10 01:55:43;;;;;;;96.83;73.00;;;;;;;;;;5030587;28;20184;-34
2022/11/10 01:58:10;;;;;;;129.90;94.37;;;;;;;;;;5028402;28;20179;-34
2022/11/10 02:00:36;;;;;;;111.90;82.40;;;;;;;;;;5029750;28;20195;-34
2022/11/10 02:03:11;;;;;;;108.93;77.43;;;;;;;;;;5010983;28;20622;-34
2022/11/10 02:05:37;;;;;;;130.40;93.63;;;;;;;;;;5028036;28;21066;-35
2022/11/10 02:08:04;;;;;;;136.50;96.00;;;;;;;;;;5027880;28;21105;-34
2022/11/10 02:10:30;;;;;;;152.00;100.97;;;;;;;;;;5008329;28;20211;-35
2022/11/10 02:12:56;;;;;;;140.13;95.23;;;;;;;;;;5015360;28;20638;-34
2022/11/10 02:15:23;;;;;;;102.60;79.03;;;;;;;;;;5028815;28;20494;-35
2022/11/10 02:17:49;;;;;;;123.13;87.87;;;;;;;;;;5028332;28;20185;-35
2022/11/10 02:20:19;;;;;;;127.87;92.90;;;;;;;;;;5030145;28;20921;-34
2022/11/10 02:22:45;;;;;;;113.13;83.00;;;;;;;;;;5032068;28;20179;-35
2022/11/10 02:25:13;;;;;;;104.03;79.20;;;;;;;;;;5027578;28;20650;-35
2022/11/10 02:27:39;;;;;;;119.03;88.10;;;;;;;;;;5025912;28;20264;-34
2022/11/10 02:30:05;;;;;;;98.47;74.97;;;;;;;;;;5031742;28;20437;-35
2022/11/10 02:32:31;;;;;;;103.27;77.50;;;;;;;;;;5027526;28;20195;-35
2022/11/10 02:34:57;;;;;;;95.07;74.30;;;;;;;;;;5028964;28;20175;-35
2022/11/10 02:37:23;;;;;;;94.90;72.47;;;;;;;;;;5032223;28;20893;-35
2022/11/10 02:39:50;;;;;;;127.57;91.37;;;;;;;;;;5027023;28;20175;-35
2022/11/10 02:42:16;;;;;;;112.27;80.93;;;;;;;;;;5024726;28;20207;-35
2022/11/10 02:44:42;;;;;;;99.27;77.40;;;;;;;;;;5011494;28;20608;-34
2022/11/10 02:47:08;;;;;;;108.93;81.30;;;;;;;;;;5026777;28;20249;-35
2022/11/10 02:49:34;;;;;;;124.27;90.00;;;;;;;;;;5023265;28;20176;-35
2022/11/10 02:52:00;;;;;;;124.80;88.43;;;;;;;;;;5026101;28;20329;-35
2022/11/10 02:54:26;;;;;;;139.70;97.43;;;;;;;;;;5025335;28;20758;-35
2022/11/10 02:56:52;;;;;;;120.43;85.67;;;;;;;;;;5025587;28;20179;-34
2022/11/10 02:59:18;;;;;;;124.67;90.23;;;;;;;;;;5023215;28;20178;-35
2022/11/10 03:01:45;;;;;;;140.60;99.03;;;;;;;;;;5024279;28;20642;-35
2022/11/10 03:04:11;;;;;;;113.73;84.77;;;;;;;;;;5025262;28;20467;-35
2022/11/10 03:06:37;;;;;;;104.37;80.73;;;;;;;;;;5027134;28;20680;-35
2022/11/10 03:09:03;;;;;;;119.43;89.10;;;;;;;;;;5024057;28;20555;-35
2022/11/10 03:11:29;;;;;;;134.20;97.20;;;;;;;;;;5023958;28;20321;-35
2022/11/10 03:13:55;;;;;;;131.93;94.40;;;;;;;;;;5027254;28;20439;-35
2022/11/10 03:16:21;;;;;;;144.33;102.43;;;;;;;;;;5026975;28;20734;-35
2022/11/10 03:18:47;;;;;;;137.37;98.40;;;;;;;;;;5023149;28;20437;-35
2022/11/10 03:21:13;;;;;;;151.13;104.47;;;;;;;;;;5023767;28;20214;-34
2022/11/10 03:23:39;;;;;;;164.97;110.83;;;;;;;;;;5029120;28;20552;-35
2022/11/10 03:26:06;;;;;;;173.10;113.87;;;;;;;;;;5024710;28;20195;-35
2022/11/10 03:28:32;;;;;;;144.97;102.27;;;;;;;;;;5025573;28;20202;-35
2022/11/10 03:30:58;;;;;;;131.83;94.93;;;;;;;;;;5022038;28;21035;-35
2022/11/10 03:33:24;;;;;;;160.20;107.93;;;;;;;;;;5027003;28;20792;-35
2022/11/10 03:35:50;;;;;;;165.60;111.93;;;;;;;;;;5022805;28;21613;-35
2022/11/10 03:38:16;;;;;;;140.20;99.83;;;;;;;;;;5024148;28;20202;-34
2022/11/10 03:40:42;;;;;;;119.53;86.97;;;;;;;;;;5026402;28;20233;-34
2022/11/10 03:43:08;;;;;;;172.80;110.13;;;;;;;;;;5027318;28;20554;-35
2022/11/10 03:45:34;;;;;;;176.60;115.37;;;;;;;;;;5025156;28;21055;-34
2022/11/10 03:48:00;;;;;;;157.07;106.57;;;;;;;;;;5024744;28;20213;-34
2022/11/10 03:50:26;;;;;;;137.03;96.77;;;;;;;;;;5020622;28;20630;-35
2022/11/10 03:52:52;;;;;;;149.50;104.07;;;;;;;;;;5024996;28;20191;-35
2022/11/10 03:55:19;;;;;;;130.80;97.47;;;;;;;;;;5024235;28;20172;-35
2022/11/10 03:57:45;;;;;;;149.90;103.47;;;;;;;;;;5022678;28;20184;-35
2022/11/10 04:00:12;;;;;;;155.60;106.93;;;;;;;;;;5024819;28;20307;-35
2022/11/10 04:02:39;;;;;;;145.83;97.40;;;;;;;;;;5028461;28;20229;-35
2022/11/10 04:10:45;;;;;;;165.13;110.00;;;;;;;;;;5029364;28;20284;-35
2022/11/10 04:15:56;;;;;;;154.03;101.63;;;;;;;;;;5029302;28;20250;-35
2022/11/10 04:18:25;;;;;;;157.10;106.50;;;;;;;;;;5024879;28;20456;-35
2022/11/10 04:20:55;;;;;;;152.37;105.97;;;;;;;;;;5026680;28;20434;-35
2022/11/10 04:23:25;;;;;;;133.47;96.33;;;;;;;;;;5028509;28;20375;-35
2022/11/10 04:28:37;;;;;;;169.80;112.73;;;;;;;;;;5027965;28;20698;-36
2022/11/10 04:31:03;;;;;;;166.97;113.90;;;;;;;;;;5027575;28;20199;-35
2022/11/10 04:33:29;;;;;;;169.20;111.70;;;;;;;;;;5026498;28;20175;-35
2022/11/10 04:35:55;;;;;;;135.07;97.73;;;;;;;;;;5029200;28;20183;-35
2022/11/10 04:38:21;;;;;;;162.20;111.07;;;;;;;;;;5027476;28;20519;-35
2022/11/10 04:40:47;;;;;;;163.33;108.33;;;;;;;;;;5026616;28;20509;-35
2022/11/10 04:43:13;;;;;;;172.13;113.80;;;;;;;;;;5027189;28;20188;-35
2022/11/10 04:45:40;;;;;;;189.67;124.40;;;;;;;;;;5028903;28;20320;-35
2022/11/10 04:48:06;;;;;;;174.73;122.10;;;;;;;;;;5028875;28;20486;-35
2022/11/10 04:50:32;;;;;;;180.30;121.17;;;;;;;;;;5026153;28;20880;-36
2022/11/10 04:52:58;;;;;;;175.80;118.10;;;;;;;;;;5028567;28;20678;-35
2022/11/10 04:55:24;;;;;;;167.20;114.67;;;;;;;;;;5028272;28;20643;-36
2022/11/10 04:57:50;;;;;;;174.67;116.67;;;;;;;;;;5028850;28;20175;-35
2022/11/10 05:00:16;;;;;;;148.53;104.40;;;;;;;;;;5026760;28;20218;-35
2022/11/10 05:02:42;;;;;;;164.80;116.90;;;;;;;;;;5029950;28;20202;-35
2022/11/10 05:05:09;;;;;;;133.47;97.27;;;;;;;;;;5026771;28;21017;-35
2022/11/10 05:07:35;;;;;;;170.97;114.13;;;;;;;;;;5031431;28;20861;-35
2022/11/10 05:10:01;;;;;;;140.27;100.13;;;;;;;;;;5028313;28;20187;-35
2022/11/10 05:12:27;;;;;;;148.50;102.17;;;;;;;;;;5030564;28;20209;-35
2022/11/10 05:14:54;;;;;;;159.67;112.00;;;;;;;;;;5030164;28;20277;-35
2022/11/10 05:17:21;;;;;;;129.07;92.53;;;;;;;;;;5029491;28;20364;-35
2022/11/10 05:19:47;;;;;;;157.73;108.10;;;;;;;;;;5029136;28;20207;-35
2022/11/10 05:22:13;;;;;;;171.97;114.50;;;;;;;;;;5030771;28;20306;-35
2022/11/10 05:24:39;;;;;;;152.67;105.50;;;;;;;;;;5029798;28;21110;-35
2022/11/10 05:27:07;;;;;;;146.73;100.97;;;;;;;;;;5027070;28;20781;-35
2022/11/10 05:29:33;;;;;;;172.63;113.90;;;;;;;;;;5029071;28;20931;-34
2022/11/10 05:31:59;;;;;;;154.67;105.63;;;;;;;;;;5029319;28;20531;-34
2022/11/10 05:34:25;;;;;;;168.43;113.00;;;;;;;;;;5025306;28;20444;-35
2022/11/10 05:36:51;;;;;;;164.07;109.97;;;;;;;;;;5025607;28;20190;-35
2022/11/10 05:39:17;;;;;;;172.53;114.23;;;;;;;;;;5027847;28;20167;-35
2022/11/10 05:41:43;;;;;;;125.33;92.63;;;;;;;;;;5029813;28;20774;-35
2022/11/10 05:44:09;;;;;;;138.83;98.83;;;;;;;;;;5029292;28;20222;-36
2022/11/10 05:46:35;;;;;;;123.63;88.20;;;;;;;;;;5030156;28;20947;-35
2022/11/10 05:49:01;;;;;;;160.47;107.43;;;;;;;;;;5027956;28;21022;-35
2022/11/10 05:51:28;;;;;;;175.40;113.10;;;;;;;;;;5029073;28;20198;-35
2022/11/10 05:53:54;;;;;;;149.13;104.20;;;;;;;;;;5029380;28;20824;-35
2022/11/10 05:56:20;;;;;;;152.80;105.17;;;;;;;;;;5027321;28;20615;-35
2022/11/10 05:58:46;;;;;;;144.17;101.60;;;;;;;;;;5029722;28;21166;-35
2022/11/10 06:01:12;;;;;;;155.83;105.47;;;;;;;;;;5031637;28;20184;-35
2022/11/10 06:03:38;;;;;;;156.70;104.07;;;;;;;;;;5033391;28;20975;-35
2022/11/10 06:06:04;;;;;;;163.10;109.57;;;;;;;;;;5001350;28;20597;-35
2022/11/10 06:08:30;;;;;;;143.50;101.23;;;;;;;;;;5027872;28;20577;-35
2022/11/10 06:10:57;;;;;;;132.47;94.47;;;;;;;;;;5030011;28;20699;-35
2022/11/10 06:13:24;;;;;;;138.17;96.67;;;;;;;;;;5009462;28;20603;-35
2022/11/10 06:15:50;;;;;;;166.67;108.70;;;;;;;;;;5031348;28;20530;-35
2022/11/10 06:18:16;;;;;;;126.47;91.93;;;;;;;;;;5026744;28;21003;-35
2022/11/10 06:20:42;;;;;;;147.70;102.63;;;;;;;;;;5024621;28;20347;-35
2022/11/10 06:23:13;;;;;;;141.50;98.90;;;;;;;;;;5024396;28;20984;-35
2022/11/10 06:25:39;;;;;;;132.70;95.97;;;;;;;;;;5023350;28;20272;-36
2022/11/10 06:28:06;;;;;;;151.83;103.60;;;;;;;;;;5024125;28;20175;-35
2022/11/10 06:30:33;;;;;;;124.53;92.07;;;;;;;;;;5026494;28;20186;-35
2022/11/10 06:32:59;;;;;;;137.53;97.10;;;;;;;;;;5027456;28;20548;-35
2022/11/10 06:35:26;;;;;;;146.90;101.87;;;;;;;;;;5024307;28;20242;-35
2022/11/10 06:38:02;;;;;;;147.07;103.50;;;;;;;;;;5025163;28;20317;-35
2022/11/10 06:40:29;;;;;;;159.97;106.90;;;;;;;;;;5029512;28;20701;-35
2022/11/10 06:42:55;;;;;;;172.20;110.23;;;;;;;;;;5027512;28;20611;-35
2022/11/10 06:45:22;;;;;;;176.43;114.33;;;;;;;;;;5029003;28;20176;-35
2022/11/10 06:47:48;;;;;;;154.43;104.17;;;;;;;;;;5033772;28;20212;-35
2022/11/10 06:50:15;;;;;;;162.47;106.10;;;;;;;;;;5024199;28;20171;-36
2022/11/10 06:52:41;;;;;;;151.30;103.67;;;;;;;;;;5029166;28;20662;-35
2022/11/10 06:55:08;;;;;;;151.93;104.67;;;;;;;;;;5031257;28;20176;-35
2022/11/10 06:57:38;;;;;;;144.97;101.77;;;;;;;;;;5030684;28;20309;-36
2022/11/10 07:00:04;;;;;;;149.93;104.23;;;;;;;;;;5031421;28;20180;-35
2022/11/10 07:02:30;;;;;;;159.83;106.80;;;;;;;;;;5027471;28;20178;-35
2022/11/10 07:04:56;;;;;;;125.73;90.90;;;;;;;;;;5029023;28;20198;-35
2022/11/10 07:07:22;;;;;;;153.83;105.93;;;;;;;;;;5027462;28;20172;-35
2022/11/10 07:09:48;;;;;;;147.23;101.83;;;;;;;;;;5025780;28;20552;-35
2022/11/10 07:12:14;;;;;;;175.70;113.53;;;;;;;;;;5025140;28;20293;-36
2022/11/10 07:14:40;;;;;;;139.93;96.07;;;;;;;;;;5025934;28;20791;-35
2022/11/10 07:17:06;;;;;;;166.40;109.33;;;;;;;;;;5026940;28;20740;-35
2022/11/10 07:19:32;;;;;;;137.43;95.57;;;;;;;;;;5026338;28;20621;-35
2022/11/10 07:21:58;;;;;;;127.73;88.50;;;;;;;;;;5027064;28;20651;-35
2022/11/10 07:24:25;;;;;;;135.40;95.40;;;;;;;;;;5025846;28;20955;-35
2022/11/10 07:26:51;;;;;;;128.93;93.70;;;;;;;;;;5025687;28;20291;-35
2022/11/10 07:29:17;;;;;;;131.73;93.10;;;;;;;;;;5011007;28;20184;-35
2022/11/10 07:31:43;;;;;;;155.17;104.80;;;;;;;;;;5025498;28;20979;-35
2022/11/10 07:34:09;;;;;;;136.27;95.83;;;;;;;;;;5026021;28;20214;-35
2022/11/10 07:36:35;;;;;;;164.53;106.23;;;;;;;;;;5031845;28;20176;-35
2022/11/10 07:39:01;;;;;;;129.53;93.13;;;;;;;;;;5031455;28;20831;-35
2022/11/10 07:41:28;;;;;;;122.70;89.03;;;;;;;;;;5028977;28;20739;-35
2022/11/10 07:43:54;;;;;;;159.00;104.97;;;;;;;;;;5029346;28;20207;-35
2022/11/10 07:46:20;;;;;;;127.93;92.57;;;;;;;;;;5010461;28;20213;-35
2022/11/10 07:48:46;;;;;;;126.33;91.90;;;;;;;;;;5029946;28;20187;-35
2022/11/10 07:51:12;;;;;;;151.40;102.47;;;;;;;;;;4997661;28;20303;-35
2022/11/10 07:53:39;;;;;;;167.23;110.03;;;;;;;;;;5025556;28;20186;-35
2022/11/10 07:56:05;;;;;;;169.57;106.50;;;;;;;;;;5011968;28;20274;-35
2022/11/10 07:58:32;;;;;;;154.90;103.67;;;;;;;;;;5012397;28;20265;-35
2022/11/10 08:00:59;;;;;;;143.97;98.40;;;;;;;;;;5026197;28;20210;-35
2022/11/10 08:03:25;;;;;;;143.40;97.77;;;;;;;;;;5024402;28;20175;-35
2022/11/10 08:05:51;;;;;;;142.03;97.47;;;;;;;;;;5025390;28;20187;-35
2022/11/10 08:08:17;;;;;;;168.53;108.63;;;;;;;;;;5018438;28;20171;-35
2022/11/10 08:10:43;;;;;;;133.50;96.00;;;;;;;;;;4993183;28;20187;-35
2022/11/10 08:13:11;;;;;;;142.67;98.40;;;;;;;;;;5012160;28;20871;-35
2022/11/10 08:15:37;;;;;;;164.23;107.57;;;;;;;;;;5015444;28;20282;-35
2022/11/10 08:18:05;;;;;;;193.23;118.43;;;;;;;;;;5019473;28;21254;-35
2022/11/10 08:20:32;;;;;;;181.90;115.30;;;;;;;;;;5026794;28;20712;-35
2022/11/10 08:23:02;;;;;;;180.10;112.53;;;;;;;;;;5016232;28;20596;-35
2022/11/10 08:25:29;;;;;;;179.57;113.07;;;;;;;;;;5028482;28;20190;-35
2022/11/10 08:28:02;;;;;;;176.37;114.53;;;;;;;;;;5027017;28;20171;-35
2022/11/10 08:30:28;;;;;;;147.30;101.00;;;;;;;;;;5023219;28;20673;-35
2022/11/10 08:32:59;;;;;;;166.87;108.33;;;;;;;;;;5013924;28;20187;-35
2022/11/10 08:35:26;;;;;;;206.70;124.60;;;;;;;;;;5018307;28;20729;-36
2022/11/10 08:37:52;;;;;;;178.93;112.83;;;;;;;;;;5029768;28;20695;-35
2022/11/10 08:40:22;;;;;;;191.17;117.70;;;;;;;;;;5026838;28;20183;-35
2022/11/10 08:42:56;;;;;;;171.73;109.97;;;;;;;;;;5029135;28;20634;-35
2022/11/10 08:45:22;;;;;;;203.00;120.03;;;;;;;;;;5032708;28;20944;-35
2022/11/10 08:47:55;;;;;;;219.00;126.50;;;;;;;;;;5031336;28;20594;-35
2022/11/10 08:50:22;;;;;;;209.43;124.97;;;;;;;;;;5028538;28;20174;-35
2022/11/10 08:52:48;;;;;;;214.80;124.57;;;;;;;;;;5030935;28;20279;-35
2022/11/10 08:55:14;;;;;;;195.83;120.33;;;;;;;;;;5035031;28;20179;-35
2022/11/10 08:57:40;;;;;;;195.87;119.23;;;;;;;;;;5031060;28;20324;-35
2022/11/10 09:00:06;;;;;;;186.07;118.20;;;;;;;;;;5028502;28;20598;-35
2022/11/10 09:02:32;;;;;;;191.97;116.70;;;;;;;;;;5028393;28;20979;-35
2022/11/10 09:04:58;;;;;;;179.03;112.97;;;;;;;;;;5029678;28;21021;-35
2022/11/10 09:07:24;;;;;;;185.63;117.40;;;;;;;;;;5029288;28;20179;-35
2022/11/10 09:09:50;;;;;;;175.47;113.77;;;;;;;;;;5026914;28;20175;-35
2022/11/10 09:12:17;;;;;;;183.03;114.67;;;;;;;;;;5027717;28;20196;-35
2022/11/10 09:14:43;;;;;;;152.67;101.30;;;;;;;;;;5030402;28;20617;-36
2022/11/10 09:17:09;;;;;;;170.13;103.57;;;;;;;;;;5033508;28;20176;-35
2022/11/10 09:19:35;;;;;;;170.53;106.77;;;;;;;;;;5028479;28;20630;-36
2022/11/10 09:22:01;;;;;;;151.50;97.57;;;;;;;;;;5027504;28;20179;-35
2022/11/10 09:24:27;;;;;;;145.90;95.60;;;;;;;;;;5027187;28;20184;-35
2022/11/10 09:26:53;;;;;;;152.10;97.73;;;;;;;;;;5015709;28;20453;-35
2022/11/10 09:29:20;;;;;;;149.67;95.37;;;;;;;;;;5032075;28;20233;-35
2022/11/10 09:31:46;;;;;;;151.53;96.63;;;;;;;;;;5027293;28;20290;-35
2022/11/10 09:34:12;;;;;;;146.73;94.80;;;;;;;;;;5025453;28;20382;-35
2022/11/10 09:36:39;;;;;;;138.83;92.13;;;;;;;;;;5031032;28;20172;-36
2022/11/10 09:39:06;;;;;;;138.60;87.13;;;;;;;;;;5033128;28;20182;-36
2022/11/10 09:41:32;;;;;;;129.80;86.00;;;;;;;;;;5029460;28;20180;-36
2022/11/10 09:43:58;;;;;;;129.70;85.57;;;;;;;;;;5026593;28;20773;-36
2022/11/10 09:46:27;;;;;;;132.77;86.00;;;;;;;;;;5029464;28;20180;-36
2022/11/10 09:48:56;;;;;;;137.40;88.63;;;;;;;;;;5015768;28;20180;-35
2022/11/10 09:51:24;;;;;;;122.40;80.87;;;;;;;;;;5026282;28;20353;-36
2022/11/10 09:53:54;;;;;;;118.10;80.10;;;;;;;;;;5026049;28;20262;-35
2022/11/10 09:56:34;;;;;;;116.80;76.50;;;;;;;;;;5028421;28;20558;-35
2022/11/10 09:59:00;;;;;;;115.07;77.03;;;;;;;;;;5030630;28;20618;-36
2022/11/10 10:01:45;;;;;;;122.57;78.80;;;;;;;;;;5009138;28;20221;-36
2022/11/10 10:04:37;;;;;;;114.40;75.83;;;;;;;;;;5028581;28;20259;-36
2022/11/10 10:07:09;;;;;;;122.10;78.30;;;;;;;;;;5011962;28;20180;-36
2022/11/10 10:09:38;;;;;;;118.00;76.00;;;;;;;;;;5029341;28;20789;-36
2022/11/10 10:12:04;;;;;;;119.90;76.93;;;;;;;;;;5023663;28;20208;-36
2022/11/10 10:14:36;;;;;;;108.63;73.03;;;;;;;;;;5028946;28;20653;-36
2022/11/10 10:17:16;;;;;;;108.83;70.27;;;;;;;;;;5029632;28;21044;-35
2022/11/10 10:19:49;;;;;;;87.33;58.60;;;;;;;;;;5026598;28;20178;-36
2022/11/10 10:22:24;;;;;;;94.13;60.23;;;;;;;;;;5029173;28;20660;-36
2022/11/10 10:24:52;;;;;;;87.77;58.10;;;;;;;;;;5029288;28;20167;-35
2022/11/10 10:27:23;;;;;;;80.50;54.03;;;;;;;;;;5024293;28;21070;-36
2022/11/10 10:29:49;;;;;;;81.47;52.53;;;;;;;;;;5024731;28;20184;-35
2022/11/10 10:32:16;;;;;;;88.10;56.73;;;;;;;;;;5028727;28;20200;-36
2022/11/10 10:34:43;;;;;;;86.93;57.50;;;;;;;;;;5027450;28;20651;-36
2022/11/10 10:37:19;;;;;;;83.73;53.93;;;;;;;;;;5004656;28;20643;-36
2022/11/10 10:39:46;;;;;;;89.87;56.90;;;;;;;;;;5025964;28;20611;-36
2022/11/10 10:42:17;;;;;;;82.53;53.60;;;;;;;;;;5027963;28;20226;-34
2022/11/10 10:45:03;;;;;;;77.67;52.50;;;;;;;;;;5028900;28;20175;-35
2022/11/10 10:47:36;;;;;;;78.87;52.50;;;;;;;;;;5025144;28;20178;-36
2022/11/10 10:50:35;;;;;;;81.90;55.40;;;;;;;;;;5026362;28;20168;-36
2022/11/10 10:53:19;;;;;;;89.03;57.27;;;;;;;;;;4965002;28;20192;-35
2022/11/10 10:55:59;;;;;;;84.10;55.47;;;;;;;;;;5024368;28;20180;-35
2022/11/10 10:58:28;;;;;;;76.63;51.27;;;;;;;;;;5028347;28;20394;-35
2022/11/10 11:01:03;;;;;;;83.27;55.00;;;;;;;;;;5031594;28;20175;-36
2022/11/10 11:03:40;;;;;;;76.60;52.63;;;;;;;;;;5026029;28;20816;-36
2022/11/10 11:06:17;;;;;;;85.60;56.43;;;;;;;;;;5026198;28;20187;-36
2022/11/10 11:08:55;;;;;;;83.80;54.97;;;;;;;;;;5026922;28;20538;-36
2022/11/10 11:11:26;;;;;;;77.40;53.23;;;;;;;;;;5025090;28;20195;-35
2022/11/10 11:13:52;;;;;;;73.20;50.37;;;;;;;;;;5033113;28;20198;-36
2022/11/10 11:16:18;;;;;;;75.13;52.23;;;;;;;;;;5032707;28;20175;-35
2022/11/10 11:18:44;;;;;;;77.23;51.87;;;;;;;;;;5031203;28;20171;-36
2022/11/10 11:21:22;;;;;;;79.93;53.80;;;;;;;;;;5031447;28;20691;-35
2022/11/10 11:23:55;;;;;;;79.70;52.63;;;;;;;;;;5032296;28;20958;-36
2022/11/10 11:26:36;;;;;;;80.50;55.17;;;;;;;;;;5028918;28;20210;-36
2022/11/10 11:29:02;;;;;;;71.37;51.07;;;;;;;;;;5010069;28;20661;-36
2022/11/10 11:31:44;;;;;;;80.80;55.63;;;;;;;;;;5030213;28;20781;-36
2022/11/10 11:34:17;;;;;;;72.37;51.07;;;;;;;;;;5032281;28;20706;-36
2022/11/10 11:37:01;;;;;;;67.77;49.33;;;;;;;;;;5029325;28;20253;-36
2022/11/10 11:39:39;;;;;;;67.50;47.97;;;;;;;;;;5026477;28;20255;-36
2022/11/10 11:42:09;;;;;;;66.93;46.73;;;;;;;;;;5029350;28;20215;-35
2022/11/10 11:44:41;;;;;;;64.50;47.83;;;;;;;;;;5031267;28;20180;-36
2022/11/10 11:47:32;;;;;;;59.30;43.10;;;;;;;;;;5028803;28;20542;-36
2022/11/10 11:50:09;;;;;;;60.87;43.77;;;;;;;;;;5028290;28;20195;-35
2022/11/10 11:52:38;;;;;;;58.03;42.70;;;;;;;;;;5034608;28;20956;-36
2022/11/10 11:55:07;;;;;;;58.33;42.43;;;;;;;;;;5030419;28;20851;-36
2022/11/10 11:57:33;;;;;;;59.33;43.63;;;;;;;;;;5029381;28;20486;-36
2022/11/10 12:00:04;;;;;;;59.50;43.40;;;;;;;;;;5031557;28;20245;-36
2022/11/10 12:02:33;;;;;;;56.00;41.57;;;;;;;;;;5034364;28;20850;-36
2022/11/10 12:04:59;;;;;;;51.37;39.07;;;;;;;;;;5030832;28;20229;-35
2022/11/10 12:07:25;;;;;;;48.67;36.97;;;;;;;;;;5029912;28;20300;-36
2022/11/10 12:10:06;;;;;;;50.37;37.87;;;;;;;;;;5033378;28;20179;-38
2022/11/10 12:12:35;;;;;;;51.73;38.23;;;;;;;;;;5030106;28;20207;-38
2022/11/10 12:15:20;;;;;;;48.53;38.30;;;;;;;;;;5031533;28;20487;-35
2022/11/10 12:17:57;;;;;;;55.73;40.57;;;;;;;;;;5029644;28;20472;-35
2022/11/10 12:20:30;;;;;;;53.90;38.90;;;;;;;;;;5030774;28;20345;-36
2022/11/10 12:22:59;;;;;;;53.27;39.40;;;;;;;;;;5030352;28;20190;-35
2022/11/10 12:25:31;;;;;;;56.00;40.13;;;;;;;;;;5028336;28;20886;-36
2022/11/10 12:28:09;;;;;;;57.20;42.87;;;;;;;;;;5030935;28;20253;-37
2022/11/10 12:30:36;;;;;;;58.03;42.63;;;;;;;;;;5031589;28;20180;-37
2022/11/10 12:33:15;;;;;;;58.10;42.57;;;;;;;;;;5031708;28;20219;-37
2022/11/10 12:35:42;;;;;;;61.93;46.50;;;;;;;;;;5033707;28;20670;-37
2022/11/10 12:38:16;;;;;;;59.70;43.67;;;;;;;;;;5032426;28;20264;-36
2022/11/10 12:40:49;;;;;;;61.97;46.23;;;;;;;;;;5032502;28;20176;-37
2022/11/10 12:43:34;;;;;;;66.30;47.20;;;;;;;;;;5029349;28;20241;-37
2022/11/10 12:46:02;;;;;;;64.40;46.57;;;;;;;;;;5030621;28;20187;-37
2022/11/10 12:48:34;;;;;;;62.83;46.30;;;;;;;;;;5032476;28;20819;-37
2022/11/10 12:51:03;;;;;;;70.63;49.77;;;;;;;;;;5028346;28;20810;-36
2022/11/10 12:53:35;;;;;;;69.27;48.37;;;;;;;;;;5030334;28;20181;-37
2022/11/10 12:56:05;;;;;;;77.73;53.30;;;;;;;;;;5031267;28;20179;-36
2022/11/10 12:58:31;;;;;;;75.10;52.10;;;;;;;;;;5030092;28;20181;-37
2022/11/10 13:01:00;;;;;;;82.40;56.07;;;;;;;;;;5028928;28;20249;-36
2022/11/10 13:03:28;;;;;;;70.50;51.37;;;;;;;;;;5029588;28;20183;-35
2022/11/10 13:05:55;;;;;;;84.90;55.73;;;;;;;;;;5031515;28;20765;-36
2022/11/10 13:08:31;;;;;;;83.07;57.10;;;;;;;;;;5034160;28;20470;-36
2022/11/10 13:11:02;;;;;;;84.97;57.27;;;;;;;;;;5030627;28;20244;-36
2022/11/10 13:13:28;;;;;;;89.23;58.33;;;;;;;;;;5031684;28;20857;-35
2022/11/10 13:15:55;;;;;;;72.10;51.97;;;;;;;;;;5031056;28;20186;-36
2022/11/10 13:18:31;;;;;;;83.33;56.90;;;;;;;;;;5027304;28;20426;-36
2022/11/10 13:20:58;;;;;;;84.23;57.03;;;;;;;;;;5029067;28;20625;-36
2022/11/10 13:23:32;;;;;;;82.23;57.73;;;;;;;;;;5029429;28;20244;-36
2022/11/10 13:26:05;;;;;;;76.17;55.27;;;;;;;;;;5029262;28;20638;-35
2022/11/10 13:28:46;;;;;;;96.17;64.23;;;;;;;;;;5027236;28;20265;-37
2022/11/10 13:31:28;;;;;;;95.67;63.33;;;;;;;;;;5027758;28;20609;-36
2022/11/10 13:34:04;;;;;;;92.83;63.50;;;;;;;;;;5031350;28;20650;-36
2022/11/10 13:36:37;;;;;;;73.77;53.83;;;;;;;;;;5007095;28;20190;-36
2022/11/10 13:39:16;;;;;;;69.57;51.10;;;;;;;;;;5027377;28;20180;-36
2022/11/10 13:41:45;;;;;;;71.07;52.17;;;;;;;;;;5029245;28;20175;-37
2022/11/10 13:44:20;;;;;;;73.93;52.97;;;;;;;;;;5026223;28;20946;-36
2022/11/10 13:46:57;;;;;;;68.73;50.33;;;;;;;;;;5029596;28;20496;-36
2022/11/10 13:49:40;;;;;;;71.13;53.60;;;;;;;;;;5032172;28;20179;-37
2022/11/10 13:52:17;;;;;;;70.40;52.07;;;;;;;;;;5031420;28;20191;-36
2022/11/10 13:54:43;;;;;;;71.93;52.43;;;;;;;;;;5030359;28;20678;-37
2022/11/10 13:57:20;;;;;;;71.90;51.77;;;;;;;;;;5032389;28;20237;-37
2022/11/10 13:59:55;;;;;;;70.23;51.07;;;;;;;;;;5032627;28;20315;-37
2022/11/10 14:02:33;;;;;;;64.67;48.90;;;;;;;;;;5028317;28;20285;-37
2022/11/10 14:05:19;;;;;;;70.20;51.33;;;;;;;;;;5031356;28;20184;-37
2022/11/10 14:07:46;;;;;;;68.87;49.70;;;;;;;;;;5030675;28;20309;-36
2022/11/10 14:10:23;;;;;;;68.83;50.57;;;;;;;;;;5027599;28;20261;-37
2022/11/10 14:12:52;;;;;;;81.30;56.40;;;;;;;;;;5029397;28;20207;-37
2022/11/10 14:15:20;;;;;;;64.97;49.23;;;;;;;;;;5028673;28;20218;-37
2022/11/10 14:17:54;;;;;;;72.03;52.93;;;;;;;;;;5028725;28;20702;-37
2022/11/10 14:20:41;;;;;;;85.97;58.23;;;;;;;;;;5025087;28;21288;-37
2022/11/10 14:23:13;;;;;;;72.77;54.03;;;;;;;;;;5029142;28;20179;-37
2022/11/10 14:25:41;;;;;;;77.93;55.17;;;;;;;;;;5026659;28;20656;-36
2022/11/10 14:28:25;;;;;;;73.57;52.77;;;;;;;;;;5024797;28;20186;-37